Time;durP1;ratioP1;P1;durP2;ratioP2;P2;SDS_P1;SDS_P2;PMS_P1;PMS_P2;Temp;Humidity;BMP_temperature;BMP_pressure;BME280_temperature;BME280_humidity;BME280_pressure;Samples;Min_cycle;Max_cycle;Signal;HPM_P1;HPM_P2
2023/12/16 00:00:43;;;;;;;0.40;0.40;;;;;;;3.93;100.00;97869.09;5044321;28;20124;-70
2023/12/16 00:03:13;;;;;;;0.40;0.40;;;;;;;4.38;100.00;97924.81;5043917;28;20186;-70
2023/12/16 00:05:40;;;;;;;0.50;0.50;;;;;;;3.92;99.23;97844.75;5043808;28;20052;-70
2023/12/16 00:08:07;;;;;;;0.40;0.40;;;;;;;4.16;99.08;97872.66;5045274;28;20528;-70
2023/12/16 00:10:33;;;;;;;0.40;0.40;;;;;;;4.59;98.59;97943.25;5048111;28;20060;-70
2023/12/16 00:13:00;;;;;;;0.40;0.40;;;;;;;4.59;96.79;97958.91;5046139;28;20049;-69
2023/12/16 00:15:28;;;;;;;0.50;0.50;;;;;;;3.83;96.49;97846.56;5046433;28;20052;-68
2023/12/16 00:17:54;;;;;;;0.50;0.50;;;;;;;4.00;96.11;97885.91;5047653;28;20079;-69
2023/12/16 00:20:21;;;;;;;0.40;0.40;;;;;;;4.45;97.29;97961.69;5047108;28;20136;-69
2023/12/16 00:22:48;;;;;;;0.40;0.40;;;;;;;4.46;97.06;97955.06;5047684;28;20052;-69
2023/12/16 00:25:15;;;;;;;0.40;0.40;;;;;;;3.96;95.84;97931.50;5047490;28;20045;-69
2023/12/16 00:27:41;;;;;;;0.47;0.47;;;;;;;4.38;95.20;97953.06;5045931;28;20106;-69
2023/12/16 00:30:08;;;;;;;0.40;0.40;;;;;;;4.29;92.92;97951.34;5047125;28;20155;-69
2023/12/16 00:32:39;;;;;;;0.40;0.40;;;;;;;3.72;92.10;97894.47;5046067;28;20895;-69
2023/12/16 00:35:10;;;;;;;0.45;0.45;;;;;;;3.45;91.31;97889.81;5045672;28;20052;-69
2023/12/16 00:37:36;;;;;;;0.40;0.40;;;;;;;3.44;92.34;97863.56;5047456;28;20387;-69
2023/12/16 00:40:04;;;;;;;0.40;0.40;;;;;;;3.61;91.97;97893.88;5046469;28;20661;-69
2023/12/16 00:42:31;;;;;;;0.40;0.40;;;;;;;4.06;90.50;97980.63;5046664;28;20045;-68
2023/12/16 00:44:58;;;;;;;0.40;0.40;;;;;;;4.10;90.39;98006.31;5045719;28;20156;-69
2023/12/16 00:47:25;;;;;;;0.40;0.40;;;;;;;3.77;91.07;97974.66;5045356;28;20478;-69
2023/12/16 00:49:52;;;;;;;0.40;0.40;;;;;;;3.42;90.06;97978.06;5047160;28;20080;-69
2023/12/16 00:52:19;;;;;;;0.40;0.40;;;;;;;3.19;91.23;97951.66;5046971;28;20560;-68
2023/12/16 00:54:46;;;;;;;0.40;0.40;;;;;;;1.94;91.46;97741.31;5045465;28;20523;-68
2023/12/16 00:57:13;;;;;;;0.40;0.40;;;;;;;2.58;91.44;97849.81;5046613;28;20064;-69
2023/12/16 00:59:40;;;;;;;0.40;0.40;;;;;;;3.28;91.42;98001.84;5046380;28;20258;-68
2023/12/16 01:02:07;;;;;;;0.35;0.35;;;;;;;3.31;92.87;98006.72;5046717;28;20057;-68
2023/12/16 01:04:34;;;;;;;0.40;0.40;;;;;;;3.19;93.63;97939.88;5045272;28;20049;-69
2023/12/16 01:07:02;;;;;;;0.40;0.40;;;;;;;3.31;92.69;97981.25;5046503;28;20529;-69
2023/12/16 01:09:29;;;;;;;0.40;0.40;;;;;;;3.84;94.24;97996.97;5045916;28;20068;-69
2023/12/16 01:11:56;;;;;;;0.40;0.40;;;;;;;3.87;93.65;98007.31;5046278;28;20080;-70
2023/12/16 01:14:22;;;;;;;0.40;0.40;;;;;;;3.86;94.02;98004.88;5046040;28;20674;-69
2023/12/16 01:16:49;;;;;;;0.50;0.50;;;;;;;1.86;93.66;97692.00;5046540;28;20053;-70
2023/12/16 01:19:16;;;;;;;0.40;0.40;;;;;;;3.07;94.46;97948.56;5046021;28;20048;-70
2023/12/16 01:21:43;;;;;;;0.40;0.40;;;;;;;3.35;95.18;98010.47;5044536;28;20107;-69
2023/12/16 01:24:10;;;;;;;0.35;0.35;;;;;;;2.77;95.82;97894.34;5044953;28;20045;-69
2023/12/16 01:26:37;;;;;;;0.40;0.40;;;;;;;3.05;96.13;97932.44;5046085;28;20055;-70
2023/12/16 01:29:04;;;;;;;0.40;0.40;;;;;;;3.27;96.34;97999.41;5046387;28;20063;-70
2023/12/16 01:31:31;;;;;;;0.40;0.40;;;;;;;3.55;97.04;98026.56;5046362;28;20496;-70
2023/12/16 01:33:58;;;;;;;0.40;0.40;;;;;;;3.32;96.95;97975.47;5046621;28;20049;-70
2023/12/16 01:36:25;;;;;;;0.40;0.40;;;;;;;3.43;97.03;97993.34;5045934;28;20107;-69
2023/12/16 01:38:52;;;;;;;0.32;0.32;;;;;;;2.97;96.53;97932.34;5044340;28;20652;-69
2023/12/16 01:41:19;;;;;;;0.40;0.40;;;;;;;3.33;97.79;97984.53;5045808;28;20059;-70
2023/12/16 01:43:45;;;;;;;0.35;0.35;;;;;;;3.16;98.53;97976.88;5044447;28;20059;-69
2023/12/16 01:46:13;;;;;;;0.40;0.40;;;;;;;3.62;98.74;98009.75;5044435;28;20049;-69
2023/12/16 01:48:41;;;;;;;0.40;0.40;;;;;;;3.17;99.37;97937.44;5045358;28;20066;-69
2023/12/16 01:51:09;;;;;;;0.40;0.40;;;;;;;3.75;99.13;98020.72;5044245;28;20132;-69
2023/12/16 01:53:37;;;;;;;0.40;0.40;;;;;;;3.30;95.95;98013.31;5045485;28;20059;-69
2023/12/16 01:56:05;;;;;;;0.40;0.40;;;;;;;2.48;96.48;97844.53;5045433;28;20064;-69
2023/12/16 01:58:33;;;;;;;0.40;0.40;;;;;;;3.60;97.85;98026.50;5044302;28;20053;-69
2023/12/16 02:01:00;;;;;;;0.40;0.40;;;;;;;3.48;96.76;98004.22;5045106;28;20052;-69
2023/12/16 02:03:28;;;;;;;0.40;0.40;;;;;;;3.71;97.19;98030.66;5045519;28;20048;-69
2023/12/16 02:05:57;;;;;;;0.40;0.40;;;;;;;3.33;95.07;97963.44;5045153;28;20100;-69
2023/12/16 02:08:24;;;;;;;0.40;0.40;;;;;;;2.72;94.32;97946.41;5043560;28;20049;-69
2023/12/16 02:10:51;;;;;;;0.40;0.40;;;;;;;3.09;96.55;98050.34;5045629;28;20334;-69
2023/12/16 02:13:18;;;;;;;0.40;0.40;;;;;;;2.82;98.31;98006.44;5044095;28;20084;-69
2023/12/16 02:15:45;;;;;;;0.30;0.30;;;;;;;2.24;100.00;97950.44;5045554;28;20048;-69
2023/12/16 02:18:12;;;;;;;0.30;0.30;;;;;;;2.51;100.00;98032.63;5045421;28;20079;-68
2023/12/16 02:20:39;;;;;;;0.30;0.30;;;;;;;2.10;100.00;97960.47;5045233;28;20057;-69
2023/12/16 02:23:14;;;;;;;0.30;0.30;;;;;;;2.02;100.00;97963.84;5045160;28;20078;-68
2023/12/16 02:25:42;;;;;;;0.40;0.40;;;;;;;2.51;100.00;98046.28;5045327;28;20055;-68
2023/12/16 02:28:10;;;;;;;0.32;0.32;;;;;;;2.36;100.00;98046.47;5044448;28;20428;-68
2023/12/16 02:30:37;;;;;;;0.30;0.30;;;;;;;1.96;100.00;97965.03;5043690;28;20582;-69
2023/12/16 02:33:04;;;;;;;0.30;0.30;;;;;;;2.57;100.00;98058.78;5042891;28;20053;-69
2023/12/16 02:35:31;;;;;;;0.30;0.30;;;;;;;2.74;100.00;98059.06;5044723;28;20057;-68
2023/12/16 02:37:58;;;;;;;0.38;0.38;;;;;;;2.26;100.00;97967.34;5045039;28;20059;-69
2023/12/16 02:40:25;;;;;;;0.35;0.35;;;;;;;2.39;100.00;98007.59;5043527;28;20057;-68
2023/12/16 02:42:52;;;;;;;0.35;0.35;;;;;;;2.56;100.00;98060.69;5042800;28;20048;-69
2023/12/16 02:45:19;;;;;;;0.40;0.40;;;;;;;2.76;100.00;98079.56;5044558;28;20130;-69
2023/12/16 02:47:45;;;;;;;0.40;0.40;;;;;;;2.92;100.00;98071.97;5044929;28;20236;-68
2023/12/16 02:50:12;;;;;;;0.38;0.38;;;;;;;2.80;100.00;98027.81;5043503;28;20123;-69
2023/12/16 02:52:39;;;;;;;0.40;0.40;;;;;;;2.84;100.00;98037.88;5045175;28;20460;-68
2023/12/16 02:55:06;;;;;;;0.40;0.40;;;;;;;3.16;100.00;98086.38;5044315;28;20053;-70
2023/12/16 02:57:33;;;;;;;0.40;0.40;;;;;;;2.89;100.00;98034.25;5042954;28;20049;-69
2023/12/16 03:00:00;;;;;;;0.40;0.40;;;;;;;3.23;100.00;98075.84;5044530;28;20135;-69
2023/12/16 03:02:27;;;;;;;0.40;0.40;;;;;;;3.30;100.00;98081.78;5044821;28;20057;-69
2023/12/16 03:04:53;;;;;;;0.40;0.40;;;;;;;3.33;100.00;98083.91;5044810;28;20056;-71
2023/12/16 03:07:20;;;;;;;0.40;0.40;;;;;;;3.37;100.00;98090.41;5043029;28;20053;-70
2023/12/16 03:09:47;;;;;;;0.40;0.40;;;;;;;2.60;100.00;97954.25;5035409;28;20529;-69
2023/12/16 03:12:14;;;;;;;0.40;0.40;;;;;;;3.07;100.00;98085.41;5057640;28;20472;-70
2023/12/16 03:14:41;;;;;;;0.40;0.40;;;;;;;2.62;100.00;98067.75;5042643;28;20102;-69
2023/12/16 03:17:08;;;;;;;0.35;0.35;;;;;;;2.01;100.00;97967.69;5044480;28;20084;-70
2023/12/16 03:19:35;;;;;;;0.30;0.30;;;;;;;2.58;100.00;98008.44;5044207;28;20056;-70
2023/12/16 03:22:03;;;;;;;0.38;0.38;;;;;;;3.20;100.00;98092.88;5042374;28;20423;-69
2023/12/16 03:24:30;;;;;;;0.30;0.30;;;;;;;3.16;100.00;98091.84;5043720;28;20103;-69
2023/12/16 03:26:56;;;;;;;0.40;0.40;;;;;;;3.16;100.00;98100.06;5043878;28;20064;-69
2023/12/16 03:29:23;;;;;;;0.40;0.40;;;;;;;2.80;100.00;98097.00;5042141;28;20763;-68
2023/12/16 03:31:50;;;;;;;0.40;0.40;;;;;;;3.29;100.00;98103.97;5044281;28;20132;-70
2023/12/16 03:34:17;;;;;;;0.40;0.40;;;;;;;3.07;100.00;98063.50;5044259;28;20057;-70
2023/12/16 03:36:44;;;;;;;0.40;0.40;;;;;;;3.39;100.00;98110.09;5043876;28;20053;-69
2023/12/16 03:39:11;;;;;;;0.40;0.40;;;;;;;3.38;100.00;98092.06;4876002;28;5002145;-69
2023/12/16 03:41:38;;;;;;;0.40;0.40;;;;;;;3.39;100.00;98092.84;5052045;28;20239;-70
2023/12/16 03:44:05;;;;;;;0.40;0.40;;;;;;;3.47;98.19;98114.06;5043726;28;20056;-69
2023/12/16 03:46:31;;;;;;;0.40;0.40;;;;;;;2.60;95.34;98008.97;5035207;28;20048;-70
2023/12/16 03:48:58;;;;;;;0.40;0.40;;;;;;;2.95;99.48;98074.09;5043558;28;20045;-70
2023/12/16 03:51:25;;;;;;;0.40;0.40;;;;;;;3.02;100.00;98060.84;5041962;28;20144;-70
2023/12/16 03:53:52;;;;;;;0.40;0.40;;;;;;;3.32;100.00;98108.84;5043548;28;20056;-70
2023/12/16 03:56:19;;;;;;;0.40;0.40;;;;;;;3.33;99.51;98105.00;5043428;28;20509;-69
2023/12/16 03:58:45;;;;;;;0.40;0.40;;;;;;;3.22;97.84;98112.56;5043757;28;20068;-70
2023/12/16 04:01:13;;;;;;;0.40;0.40;;;;;;;2.63;97.58;98002.91;5043773;28;20053;-70
2023/12/16 04:03:41;;;;;;;0.40;0.40;;;;;;;3.17;99.65;98093.47;5044204;28;20508;-70
2023/12/16 04:06:14;;;;;;;0.40;0.40;;;;;;;3.38;98.49;98102.19;5042240;28;20063;-70
2023/12/16 04:08:41;;;;;;;0.40;0.40;;;;;;;3.28;96.03;98114.09;5043007;28;20105;-69
2023/12/16 04:11:08;;;;;;;0.30;0.30;;;;;;;2.86;94.80;98084.09;5043258;28;20146;-70
2023/12/16 04:13:35;;;;;;;0.40;0.40;;;;;;;2.79;91.85;98124.66;5043420;28;20144;-69
2023/12/16 04:16:04;;;;;;;0.30;0.30;;;;;;;2.71;90.76;98137.09;5043422;28;20053;-69
2023/12/16 04:18:31;;;;;;;0.30;0.30;;;;;;;2.56;87.88;98129.06;5043350;28;20053;-69
2023/12/16 04:20:59;;;;;;;0.30;0.30;;;;;;;2.03;86.65;98052.91;5043393;28;20064;-70
2023/12/16 04:23:26;;;;;;;0.30;0.30;;;;;;;2.55;86.79;98137.56;5043718;28;20080;-70
2023/12/16 04:25:53;;;;;;;0.40;0.40;;;;;;;2.74;86.61;98158.38;5043437;28;20171;-69
2023/12/16 04:28:20;;;;;;;0.40;0.40;;;;;;;2.60;84.44;98162.13;5043323;28;20069;-69
2023/12/16 04:30:47;;;;;;;0.30;0.30;;;;;;;1.74;84.31;98008.44;5043454;28;20056;-69
2023/12/16 04:33:14;;;;;;;0.40;0.40;;;;;;;2.57;82.71;98151.75;5043695;28;20045;-69
2023/12/16 04:35:41;;;;;;;0.30;0.30;;;;;;;2.53;84.06;98172.59;5041838;28;20060;-68
2023/12/16 04:38:09;;;;;;;0.30;0.30;;;;;;;2.40;83.25;98121.34;5043327;28;20520;-68
2023/12/16 04:40:36;;;;;;;0.32;0.32;;;;;;;2.11;81.66;98076.84;5043260;28;20535;-69
2023/12/16 04:43:03;;;;;;;0.30;0.30;;;;;;;1.93;82.06;98047.56;5042863;28;20045;-69
2023/12/16 04:45:29;;;;;;;0.30;0.30;;;;;;;2.46;82.07;98144.78;5043360;28;20481;-68
2023/12/16 04:47:56;;;;;;;0.30;0.30;;;;;;;2.80;83.55;98194.69;5042033;28;20051;-69
2023/12/16 04:50:23;;;;;;;0.32;0.32;;;;;;;2.22;81.41;98116.63;5043432;28;20142;-69
2023/12/16 04:52:50;;;;;;;0.30;0.30;;;;;;;2.72;80.30;98192.59;5043293;28;20056;-69
2023/12/16 04:55:17;;;;;;;0.30;0.30;;;;;;;2.64;82.94;98142.09;5060573;28;20496;-68
2023/12/16 04:57:45;;;;;;;0.30;0.30;;;;;;;2.50;83.14;98126.66;5046891;28;20427;-69
2023/12/16 05:00:13;;;;;;;0.30;0.30;;;;;;;2.76;79.83;98194.47;5046623;28;20140;-68
2023/12/16 05:02:40;;;;;;;0.35;0.35;;;;;;;2.81;78.57;98204.53;5045235;28;20107;-69
2023/12/16 05:05:07;;;;;;;0.30;0.30;;;;;;;1.92;80.67;98078.69;5046388;28;20057;-69
2023/12/16 05:07:34;;;;;;;0.30;0.30;;;;;;;2.49;79.43;98134.09;5044964;28;20064;-69
2023/12/16 05:10:01;;;;;;;0.35;0.35;;;;;;;2.30;79.69;98129.66;5046167;28;20049;-68
2023/12/16 05:12:30;;;;;;;0.40;0.40;;;;;;;3.11;81.17;98206.88;5046404;28;20049;-68
2023/12/16 05:15:05;;;;;;;0.40;0.40;;;;;;;3.06;80.32;98224.19;5046544;28;20057;-69
2023/12/16 05:17:31;;;;;;;0.40;0.40;;;;;;;3.03;77.82;98215.75;5046454;28;20049;-68
2023/12/16 05:19:59;;;;;;;0.32;0.32;;;;;;;2.74;77.89;98199.41;5046159;28;20891;-68
2023/12/16 05:22:26;;;;;;;0.40;0.40;;;;;;;2.76;80.19;98199.13;5046371;28;20064;-68
2023/12/16 05:24:53;;;;;;;0.40;0.40;;;;;;;2.44;80.06;98158.75;5046208;28;20206;-68
2023/12/16 05:27:20;;;;;;;0.40;0.40;;;;;;;2.80;77.35;98222.88;5046294;28;20401;-68
2023/12/16 05:29:46;;;;;;;0.30;0.30;;;;;;;2.78;78.71;98243.41;5046578;28;20056;-68
2023/12/16 05:32:13;;;;;;;0.30;0.30;;;;;;;3.10;80.07;98246.28;5046443;28;20562;-68
2023/12/16 05:34:40;;;;;;;0.40;0.40;;;;;;;3.00;77.97;98239.03;5046432;28;20049;-68
2023/12/16 05:37:07;;;;;;;0.40;0.40;;;;;;;3.11;78.40;98251.47;5044833;28;20516;-68
2023/12/16 05:39:34;;;;;;;0.40;0.40;;;;;;;2.56;77.24;98139.19;5046699;28;20057;-68
2023/12/16 05:42:00;;;;;;;0.35;0.35;;;;;;;3.00;78.26;98249.19;5045766;28;20053;-67
2023/12/16 05:44:27;;;;;;;0.40;0.40;;;;;;;3.18;80.84;98229.22;5046110;28;20234;-68
2023/12/16 05:46:54;;;;;;;0.30;0.30;;;;;;;2.83;78.29;98211.34;5045623;28;20049;-68
2023/12/16 05:49:21;;;;;;;0.35;0.35;;;;;;;3.01;77.13;98234.38;5044014;28;20059;-67
2023/12/16 05:51:48;;;;;;;0.30;0.30;;;;;;;2.88;77.79;98224.13;5045157;28;20821;-67
2023/12/16 05:54:16;;;;;;;0.40;0.40;;;;;;;3.23;78.66;98259.28;5044843;28;20059;-67
2023/12/16 05:56:42;;;;;;;0.40;0.40;;;;;;;3.23;78.90;98259.28;5044862;28;20485;-67
2023/12/16 05:59:09;;;;;;;0.40;0.40;;;;;;;2.97;78.16;98297.09;5043259;28;20507;-67
2023/12/16 06:01:36;;;;;;;0.38;0.38;;;;;;;3.19;75.12;98269.19;5044280;28;20051;-69
2023/12/16 06:04:03;;;;;;;0.40;0.40;;;;;;;3.30;76.10;98270.69;5042952;28;20052;-67
2023/12/16 06:06:30;;;;;;;0.40;0.40;;;;;;;2.17;75.89;98048.34;5042664;28;20546;-68
2023/12/16 06:08:57;;;;;;;0.40;0.40;;;;;;;3.59;76.71;98279.59;5044883;28;20072;-68
2023/12/16 06:11:24;;;;;;;0.40;0.40;;;;;;;3.40;74.84;98281.50;5045565;28;20428;-68
2023/12/16 06:13:50;;;;;;;0.40;0.40;;;;;;;3.32;74.18;98278.63;5044055;28;20057;-68
2023/12/16 06:16:17;;;;;;;0.40;0.40;;;;;;;3.41;75.56;98287.81;5045368;28;20044;-68
2023/12/16 06:18:48;;;;;;;0.35;0.35;;;;;;;3.35;74.85;98284.31;5045535;28;20069;-68
2023/12/16 06:21:15;;;;;;;0.40;0.40;;;;;;;3.22;75.21;98224.81;5045274;28;20052;-68
2023/12/16 06:23:42;;;;;;;0.40;0.40;;;;;;;3.68;75.11;98244.97;5043363;28;20065;-68
2023/12/16 06:26:09;;;;;;;0.40;0.40;;;;;;;4.13;74.12;98315.53;5044692;28;20060;-67
2023/12/16 06:28:36;;;;;;;0.40;0.40;;;;;;;3.84;72.84;98301.16;5044740;28;20134;-69
2023/12/16 06:31:03;;;;;;;0.40;0.40;;;;;;;4.16;72.15;98323.16;5044949;28;20057;-68
2023/12/16 06:33:30;;;;;;;0.40;0.40;;;;;;;4.25;71.65;98321.34;5043108;28;20061;-69
2023/12/16 06:35:57;;;;;;;0.40;0.40;;;;;;;4.22;73.43;98321.97;5044804;28;20590;-68
2023/12/16 06:38:24;;;;;;;0.40;0.40;;;;;;;3.60;72.38;98240.16;5059924;28;20056;-68
2023/12/16 06:40:50;;;;;;;0.40;0.40;;;;;;;3.82;73.02;98322.59;5043560;28;20127;-68
2023/12/16 06:43:17;;;;;;;0.40;0.40;;;;;;;3.41;74.01;98340.66;5044790;28;20091;-68
2023/12/16 06:45:44;;;;;;;0.40;0.40;;;;;;;2.71;74.23;98204.66;5043168;28;20059;-68
2023/12/16 06:48:11;;;;;;;0.40;0.40;;;;;;;3.35;74.92;98341.81;5043435;28;20500;-69
2023/12/16 06:50:38;;;;;;;0.30;0.30;;;;;;;3.12;76.23;98304.31;5044690;28;20130;-68
2023/12/16 06:53:07;;;;;;;0.40;0.40;;;;;;;3.30;76.17;98363.78;5044937;28;20064;-68
2023/12/16 06:55:33;;;;;;;0.40;0.40;;;;;;;3.21;75.14;98365.53;5045021;28;20106;-67
2023/12/16 06:58:00;;;;;;;0.40;0.40;;;;;;;3.40;75.31;98351.91;5044505;28;20053;-67
2023/12/16 07:00:27;;;;;;;0.40;0.40;;;;;;;3.39;74.75;98356.56;5044586;28;20048;-69
2023/12/16 07:02:53;;;;;;;0.40;0.40;;;;;;;3.24;73.72;98358.66;5044253;28;20056;-67
2023/12/16 07:05:20;;;;;;;0.40;0.40;;;;;;;3.45;76.20;98355.38;5043983;28;20044;-67
2023/12/16 07:07:47;;;;;;;0.40;0.40;;;;;;;3.07;73.36;98321.63;5043533;28;20063;-69
2023/12/16 07:10:14;;;;;;;0.40;0.40;;;;;;;3.37;74.29;98366.97;5044536;28;20118;-66
2023/12/16 07:12:41;;;;;;;0.40;0.40;;;;;;;3.20;74.39;98325.56;5042580;28;20137;-68
2023/12/16 07:15:08;;;;;;;0.30;0.30;;;;;;;3.42;74.04;98355.97;5041980;28;20044;-68
2023/12/16 07:17:35;;;;;;;0.40;0.40;;;;;;;3.65;72.91;98360.59;5043623;28;20069;-66
2023/12/16 07:20:03;;;;;;;0.40;0.40;;;;;;;3.42;72.42;98375.16;5043814;28;20072;-66
2023/12/16 07:22:30;;;;;;;0.40;0.40;;;;;;;3.45;72.19;98382.78;5044509;28;20084;-67
2023/12/16 07:24:57;;;;;;;0.30;0.30;;;;;;;3.39;74.36;98344.78;5042119;28;20527;-63
2023/12/16 07:27:28;;;;;;;0.40;0.40;;;;;;;2.80;72.99;98288.53;5040480;28;20049;-63
2023/12/16 07:29:55;;;;;;;0.40;0.40;;;;;;;3.14;73.96;98304.84;5042539;28;20413;-64
2023/12/16 07:32:23;;;;;;;0.40;0.40;;;;;;;3.69;73.44;98408.25;5042688;28;20180;-66
2023/12/16 07:34:50;;;;;;;0.40;0.40;;;;;;;3.50;73.54;98401.91;5042489;28;20127;-60
2023/12/16 07:37:20;;;;;;;0.40;0.40;;;;;;;3.45;72.77;98398.38;5038147;28;20045;-62
2023/12/16 07:39:47;;;;;;;0.32;0.32;;;;;;;3.60;72.97;98410.00;5042976;28;20134;-62
2023/12/16 07:42:14;;;;;;;0.40;0.40;;;;;;;3.43;72.11;98422.53;5042172;28;20436;-63
2023/12/16 07:44:41;;;;;;;0.40;0.40;;;;;;;3.63;74.11;98422.28;5028523;28;20092;-60
2023/12/16 07:47:08;;;;;;;0.32;0.32;;;;;;;3.30;73.05;98396.66;5041855;28;20041;-63
2023/12/16 07:49:35;;;;;;;0.40;0.40;;;;;;;3.61;72.50;98435.47;5044544;28;20049;-64
2023/12/16 07:52:02;;;;;;;0.32;0.32;;;;;;;2.51;73.22;98267.78;5036010;28;20048;-68
2023/12/16 07:54:29;;;;;;;0.30;0.30;;;;;;;2.48;72.61;98279.28;5041234;28;20083;-67
2023/12/16 07:56:55;;;;;;;0.38;0.38;;;;;;;3.38;72.84;98444.50;5039941;28;20052;-68
2023/12/16 07:59:22;;;;;;;0.40;0.40;;;;;;;3.26;73.02;98417.50;5043018;28;20503;-65
2023/12/16 08:01:54;;;;;;;0.40;0.40;;;;;;;3.23;72.65;98417.25;5042733;28;20052;-64
2023/12/16 08:04:20;;;;;;;0.40;0.40;;;;;;;3.45;73.35;98464.94;5041576;28;20704;-67
2023/12/16 08:06:47;;;;;;;0.38;0.38;;;;;;;3.61;74.45;98460.94;5041519;28;20049;-65
2023/12/16 08:09:14;;;;;;;0.40;0.40;;;;;;;3.41;73.72;98424.75;5040227;28;20425;-64
2023/12/16 08:11:41;;;;;;;0.30;0.30;;;;;;;3.37;75.54;98446.41;5041000;28;20057;-68
2023/12/16 08:14:08;;;;;;;0.40;0.40;;;;;;;3.57;74.33;98468.13;5041555;28;20049;-67
2023/12/16 08:16:37;;;;;;;0.35;0.35;;;;;;;2.75;75.50;98362.44;5039722;28;20047;-66
2023/12/16 08:19:04;;;;;;;0.40;0.40;;;;;;;3.49;76.74;98470.66;5040818;28;20152;-65
2023/12/16 08:21:31;;;;;;;0.40;0.40;;;;;;;3.59;77.41;98467.81;5041569;28;20071;-68
2023/12/16 08:23:58;;;;;;;0.40;0.40;;;;;;;3.62;76.59;98459.03;5043617;28;20154;-69
2023/12/16 08:26:26;;;;;;;0.40;0.40;;;;;;;3.01;77.22;98368.47;5041757;28;20055;-67
2023/12/16 08:28:54;;;;;;;0.30;0.30;;;;;;;2.98;78.03;98404.66;5044334;28;20061;-68
2023/12/16 08:31:21;;;;;;;0.40;0.40;;;;;;;3.71;78.85;98471.78;5045722;28;20057;-66
2023/12/16 08:33:47;;;;;;;0.40;0.40;;;;;;;3.31;77.46;98387.31;5046052;28;20098;-65
2023/12/16 08:36:14;;;;;;;0.32;0.32;;;;;;;3.76;77.43;98444.31;5045959;28;20144;-67
2023/12/16 08:38:41;;;;;;;0.40;0.40;;;;;;;4.11;77.63;98462.25;5045058;28;20044;-67
2023/12/16 08:41:08;;;;;;;0.40;0.40;;;;;;;1.08;75.59;98017.28;5060001;28;20056;-68
2023/12/16 08:43:35;;;;;;;0.40;0.40;;;;;;;4.07;75.18;98467.50;5045382;28;20059;-69
2023/12/16 08:46:03;;;;;;;0.50;0.50;;;;;;;4.11;75.56;98443.06;5044548;28;20041;-67
2023/12/16 08:48:31;;;;;;;0.40;0.40;;;;;;;4.24;74.71;98478.81;5048755;28;20462;-66
2023/12/16 08:50:58;;;;;;;0.40;0.40;;;;;;;3.65;73.91;98415.41;5042861;28;20053;-65
2023/12/16 08:53:25;;;;;;;0.40;0.40;;;;;;;3.61;73.68;98430.81;5045281;28;20055;-68
2023/12/16 08:55:51;;;;;;;0.40;0.40;;;;;;;3.78;74.15;98464.03;5044698;28;20412;-71
2023/12/16 08:58:19;;;;;;;0.40;0.40;;;;;;;3.64;73.10;98435.69;5045206;28;20048;-67
2023/12/16 09:00:47;;;;;;;0.40;0.40;;;;;;;4.03;74.62;98471.94;5044740;28;20163;-66
2023/12/16 09:03:14;;;;;;;0.40;0.40;;;;;;;2.53;72.95;98279.25;5045221;28;20049;-68
2023/12/16 09:05:41;;;;;;;0.40;0.40;;;;;;;2.43;72.21;98216.44;5046230;28;20037;-67
2023/12/16 09:08:08;;;;;;;0.40;0.40;;;;;;;3.87;73.59;98417.63;5046423;28;20506;-68
2023/12/16 09:10:35;;;;;;;0.45;0.45;;;;;;;3.31;72.47;98304.34;5045398;28;20048;-67
2023/12/16 09:13:02;;;;;;;0.40;0.40;;;;;;;4.11;73.46;98410.16;5034966;28;20123;-66
2023/12/16 09:15:29;;;;;;;0.43;0.43;;;;;;;3.44;71.53;98309.13;5032535;28;20385;-65
2023/12/16 09:17:56;;;;;;;0.50;0.50;;;;;;;4.31;72.19;98451.84;5046698;28;20049;-64
2023/12/16 09:20:23;;;;;;;0.40;0.40;;;;;;;3.89;72.18;98358.63;5038961;28;20590;-64
2023/12/16 09:22:52;;;;;;;0.40;0.40;;;;;;;3.54;69.99;98290.63;5047110;28;20052;-64
2023/12/16 09:25:19;;;;;;;0.40;0.40;;;;;;;4.39;69.51;98437.44;5045483;28;20057;-64
2023/12/16 09:27:46;;;;;;;0.40;0.40;;;;;;;3.88;70.41;98381.69;5042361;28;20862;-71
2023/12/16 09:30:13;;;;;;;0.40;0.40;;;;;;;4.06;69.69;98400.06;5045736;28;20045;-63
2023/12/16 09:32:46;;;;;;;0.40;0.40;;;;;;;4.32;69.28;98458.94;5045723;28;20052;-66
2023/12/16 09:35:13;;;;;;;0.40;0.40;;;;;;;3.93;70.39;98428.22;5046056;28;20567;-64
2023/12/16 09:37:40;;;;;;;0.40;0.40;;;;;;;3.74;72.90;98407.34;5045298;28;20080;-66
2023/12/16 09:40:08;;;;;;;0.40;0.40;;;;;;;3.34;69.36;98362.09;5044073;28;20049;-69
2023/12/16 09:42:38;;;;;;;0.40;0.40;;;;;;;4.04;70.82;98457.13;5042575;28;20533;-66
2023/12/16 09:45:06;;;;;;;0.50;0.50;;;;;;;3.37;69.76;98309.47;5044785;28;20052;-65
2023/12/16 09:47:33;;;;;;;0.40;0.40;;;;;;;3.74;72.05;98331.47;5039044;28;20052;-68
2023/12/16 09:50:00;;;;;;;0.40;0.40;;;;;;;3.89;72.22;98301.09;5043491;28;20045;-71
2023/12/16 09:52:27;;;;;;;0.40;0.40;;;;;;;4.72;68.98;98449.31;5042810;28;20053;-70
2023/12/16 09:54:54;;;;;;;0.50;0.50;;;;;;;4.69;69.55;98441.66;5043974;28;20060;-69
2023/12/16 09:57:23;;;;;;;0.50;0.50;;;;;;;5.04;70.02;98437.53;5043422;28;20059;-71
2023/12/16 09:59:51;;;;;;;0.40;0.40;;;;;;;5.29;69.76;98440.66;5043898;28;20071;-75
2023/12/16 10:02:27;;;;;;;0.50;0.50;;;;;;;4.50;68.70;98359.34;5044728;28;20059;-69
2023/12/16 10:04:58;;;;;;;0.47;0.47;;;;;;;4.48;69.27;98345.13;5045342;28;20111;-73
2023/12/16 10:07:25;;;;;;;0.50;0.50;;;;;;;3.17;68.69;98216.66;5040375;28;20061;-73
2023/12/16 10:09:53;;;;;;;0.50;0.50;;;;;;;4.18;70.69;98356.59;5051771;28;20530;-69
2023/12/16 10:12:20;;;;;;;0.40;0.40;;;;;;;5.14;71.09;98442.84;5043608;28;20056;-69
2023/12/16 10:14:50;;;;;;;0.50;0.50;;;;;;;5.28;69.20;98438.22;5059906;28;20057;-62
2023/12/16 10:17:19;;;;;;;0.50;0.50;;;;;;;5.04;67.16;98454.00;5044573;28;20056;-66
2023/12/16 10:19:48;;;;;;;0.50;0.50;;;;;;;4.90;66.93;98403.72;5044558;28;20041;-70
2023/12/16 10:22:17;;;;;;;0.50;0.50;;;;;;;4.52;68.09;98397.50;5043974;28;20061;-67
2023/12/16 10:24:48;;;;;;;0.50;0.50;;;;;;;4.30;70.14;98318.53;5043280;28;20053;-68
2023/12/16 10:27:18;;;;;;;0.50;0.50;;;;;;;4.40;66.59;98340.31;5042376;28;20084;-68
2023/12/16 10:29:46;;;;;;;0.50;0.50;;;;;;;4.62;69.64;98447.53;5043430;28;20523;-69
2023/12/16 10:32:28;;;;;;;0.50;0.50;;;;;;;3.84;69.24;98279.22;5048337;28;20064;-69
2023/12/16 10:34:56;;;;;;;0.40;0.40;;;;;;;5.18;69.91;98416.41;5042968;28;20057;-69
2023/12/16 10:37:23;;;;;;;0.40;0.40;;;;;;;4.68;69.33;98378.84;5044282;28;20079;-68
2023/12/16 10:39:50;;;;;;;0.50;0.50;;;;;;;5.43;67.12;98441.50;5044278;28;20067;-67
2023/12/16 10:42:17;;;;;;;0.50;0.50;;;;;;;5.68;67.85;98443.75;5047197;28;20063;-69
2023/12/16 10:44:44;;;;;;;0.50;0.50;;;;;;;5.36;66.43;98368.81;5045830;28;20046;-65
2023/12/16 10:47:17;;;;;;;0.50;0.50;;;;;;;5.58;65.20;98349.69;5053356;28;20052;-66
2023/12/16 10:49:45;;;;;;;0.50;0.50;;;;;;;6.11;66.13;98430.53;5047489;28;20060;-70
2023/12/16 10:52:17;;;;;;;0.50;0.50;;;;;;;6.46;65.83;98432.50;5042351;28;20053;-67
2023/12/16 10:55:00;;;;;;;0.60;0.60;;;;;;;6.35;63.97;98436.59;5044645;28;20480;-68
2023/12/16 10:57:37;;;;;;;0.60;0.60;;;;;;;5.45;66.75;98317.53;5044075;28;20056;-71
2023/12/16 11:00:06;;;;;;;0.50;0.50;;;;;;;4.86;65.64;98295.63;5042876;28;20045;-73
2023/12/16 11:02:42;;;;;;;0.50;0.50;;;;;;;5.75;66.31;98432.34;5044000;28;20052;-66
2023/12/16 11:05:21;;;;;;;0.50;0.50;;;;;;;5.55;66.35;98435.47;5042037;28;20106;-71
2023/12/16 11:07:49;;;;;;;0.50;0.50;;;;;;;4.89;65.03;98338.94;5041125;28;20551;-66
2023/12/16 11:10:18;;;;;;;0.55;0.55;;;;;;;4.59;66.62;98223.13;5040252;28;20049;-71
2023/12/16 11:12:45;;;;;;;0.50;0.50;;;;;;;5.41;68.05;98415.41;5043201;28;20139;-69
2023/12/16 11:15:13;;;;;;;0.50;0.50;;;;;;;3.95;68.78;98267.00;5058211;28;20099;-71
2023/12/16 11:18:04;;;;;;;0.50;0.50;;;;;;;5.04;69.50;98432.03;5042190;28;20238;-71
2023/12/16 11:20:42;;;;;;;0.50;0.50;;;;;;;4.28;68.63;98251.41;5038838;28;20099;-66
2023/12/16 11:23:10;;;;;;;0.40;0.40;;;;;;;5.40;69.38;98435.78;5040945;28;20110;-70
2023/12/16 11:25:37;;;;;;;0.50;0.50;;;;;;;5.57;70.21;98431.31;5042777;28;20072;-67
2023/12/16 11:28:05;;;;;;;0.50;0.50;;;;;;;5.14;69.33;98434.63;5042563;28;20055;-63
2023/12/16 11:30:32;;;;;;;0.40;0.40;;;;;;;4.81;70.99;98395.34;5043227;28;20512;-67
2023/12/16 11:32:59;;;;;;;0.40;0.40;;;;;;;5.48;70.42;98437.81;5043943;28;20049;-68
2023/12/16 11:35:39;;;;;;;0.50;0.50;;;;;;;5.37;68.18;98425.41;5041485;28;20045;-67
2023/12/16 11:38:07;;;;;;;0.43;0.43;;;;;;;5.55;69.13;98427.22;5043628;28;20135;-64
2023/12/16 11:40:46;;;;;;;0.50;0.50;;;;;;;4.75;66.58;98360.06;5043390;28;20049;-71
2023/12/16 11:43:13;;;;;;;0.43;0.43;;;;;;;4.95;70.09;98439.34;5029738;28;20226;-68